sensor_id;sensor_type;location;lat;lon;timestamp;pressure;altitude;pressure_sealevel;temperature;humidity
77106;BME280;66057;54.718;18.426;2023-05-10T00:02:06;101931.84;;;8.21;71.87
77106;BME280;66057;54.718;18.426;2023-05-10T00:04:32;101942.00;;;8.20;71.83
77106;BME280;66057;54.718;18.426;2023-05-10T00:06:58;101935.28;;;8.22;71.88
77106;BME280;66057;54.718;18.426;2023-05-10T00:09:24;101920.38;;;8.16;71.44
77106;BME280;66057;54.718;18.426;2023-05-10T00:11:49;101931.19;;;8.24;71.84
77106;BME280;66057;54.718;18.426;2023-05-10T00:14:16;101936.38;;;8.25;71.47
77106;BME280;66057;54.718;18.426;2023-05-10T00:16:41;101932.38;;;8.29;71.28
77106;BME280;66057;54.718;18.426;2023-05-10T00:19:07;101936.84;;;8.31;71.26
77106;BME280;66057;54.718;18.426;2023-05-10T00:21:33;101925.03;;;8.22;70.98
77106;BME280;66057;54.718;18.426;2023-05-10T00:23:59;101936.88;;;8.20;71.47
77106;BME280;66057;54.718;18.426;2023-05-10T00:26:25;101936.75;;;8.18;71.16
77106;BME280;66057;54.718;18.426;2023-05-10T00:28:51;101930.94;;;8.21;71.57
77106;BME280;66057;54.718;18.426;2023-05-10T00:31:16;101935.88;;;8.18;71.94
77106;BME280;66057;54.718;18.426;2023-05-10T00:33:42;101939.78;;;8.13;71.83
77106;BME280;66057;54.718;18.426;2023-05-10T00:36:08;101935.97;;;8.19;71.66
77106;BME280;66057;54.718;18.426;2023-05-10T00:38:34;101936.28;;;8.24;71.57
77106;BME280;66057;54.718;18.426;2023-05-10T00:40:59;101928.69;;;8.25;71.71
77106;BME280;66057;54.718;18.426;2023-05-10T00:43:25;101922.59;;;8.23;71.60
77106;BME280;66057;54.718;18.426;2023-05-10T00:45:51;101928.38;;;8.21;72.37
77106;BME280;66057;54.718;18.426;2023-05-10T00:48:18;101934.09;;;8.17;71.88
77106;BME280;66057;54.718;18.426;2023-05-10T00:50:43;101920.31;;;8.15;72.08
77106;BME280;66057;54.718;18.426;2023-05-10T00:53:10;101929.53;;;8.13;71.81
77106;BME280;66057;54.718;18.426;2023-05-10T00:55:36;101927.56;;;8.09;71.89
77106;BME280;66057;54.718;18.426;2023-05-10T00:58:02;101926.78;;;8.10;71.48
77106;BME280;66057;54.718;18.426;2023-05-10T01:00:28;101923.97;;;8.07;71.61
77106;BME280;66057;54.718;18.426;2023-05-10T01:02:55;101923.00;;;8.05;71.69
77106;BME280;66057;54.718;18.426;2023-05-10T01:05:20;101925.56;;;8.05;71.06
77106;BME280;66057;54.718;18.426;2023-05-10T01:07:46;101923.59;;;8.01;70.92
77106;BME280;66057;54.718;18.426;2023-05-10T01:10:12;101916.44;;;7.97;71.03
77106;BME280;66057;54.718;18.426;2023-05-10T01:12:40;101911.69;;;7.89;71.03
77106;BME280;66057;54.718;18.426;2023-05-10T01:15:10;101915.16;;;7.90;71.33
77106;BME280;66057;54.718;18.426;2023-05-10T01:17:39;101921.50;;;7.83;71.13
77106;BME280;66057;54.718;18.426;2023-05-10T01:20:07;101913.25;;;7.87;70.69
77106;BME280;66057;54.718;18.426;2023-05-10T01:23:16;101920.16;;;7.88;70.84
77106;BME280;66057;54.718;18.426;2023-05-10T01:33:56;101916.69;;;8.00;69.91
77106;BME280;66057;54.718;18.426;2023-05-10T01:36:31;101903.75;;;7.98;69.74
77106;BME280;66057;54.718;18.426;2023-05-10T01:39:02;101911.75;;;8.03;69.23
77106;BME280;66057;54.718;18.426;2023-05-10T01:41:54;101911.28;;;8.08;68.96
77106;BME280;66057;54.718;18.426;2023-05-10T01:47:09;101909.88;;;8.25;68.06
77106;BME280;66057;54.718;18.426;2023-05-10T01:49:49;101904.13;;;8.16;68.09
77106;BME280;66057;54.718;18.426;2023-05-10T01:52:17;101916.03;;;8.15;68.42
77106;BME280;66057;54.718;18.426;2023-05-10T01:54:50;101907.06;;;8.09;68.16
77106;BME280;66057;54.718;18.426;2023-05-10T01:57:20;101921.53;;;8.08;68.27
77106;BME280;66057;54.718;18.426;2023-05-10T01:59:50;101917.97;;;8.06;68.79
77106;BME280;66057;54.718;18.426;2023-05-10T02:02:17;101912.75;;;8.05;68.87
77106;BME280;66057;54.718;18.426;2023-05-10T02:04:45;101925.00;;;8.09;68.44
77106;BME280;66057;54.718;18.426;2023-05-10T02:07:11;101925.56;;;8.05;68.70
77106;BME280;66057;54.718;18.426;2023-05-10T02:09:37;101916.75;;;8.01;68.29
77106;BME280;66057;54.718;18.426;2023-05-10T02:12:03;101920.59;;;7.95;69.39
77106;BME280;66057;54.718;18.426;2023-05-10T02:14:34;101916.03;;;7.91;68.70
77106;BME280;66057;54.718;18.426;2023-05-10T02:17:02;101911.13;;;7.94;68.87
77106;BME280;66057;54.718;18.426;2023-05-10T02:19:31;101917.78;;;7.92;68.79
77106;BME280;66057;54.718;18.426;2023-05-10T02:21:58;101910.91;;;7.91;69.17
77106;BME280;66057;54.718;18.426;2023-05-10T02:24:25;101907.34;;;7.88;68.34
77106;BME280;66057;54.718;18.426;2023-05-10T02:26:54;101919.56;;;7.93;68.50
77106;BME280;66057;54.718;18.426;2023-05-10T02:29:23;101914.88;;;7.99;67.89
77106;BME280;66057;54.718;18.426;2023-05-10T02:31:51;101912.22;;;7.97;68.32
77106;BME280;66057;54.718;18.426;2023-05-10T02:34:19;101912.22;;;7.97;68.06
77106;BME280;66057;54.718;18.426;2023-05-10T02:36:47;101917.13;;;7.94;68.40
77106;BME280;66057;54.718;18.426;2023-05-10T02:39:14;101920.91;;;7.87;68.87
77106;BME280;66057;54.718;18.426;2023-05-10T02:41:41;101921.94;;;7.78;69.48
77106;BME280;66057;54.718;18.426;2023-05-10T02:44:08;101919.50;;;7.79;69.71
77106;BME280;66057;54.718;18.426;2023-05-10T02:46:35;101921.63;;;7.73;70.06
77106;BME280;66057;54.718;18.426;2023-05-10T02:49:02;101915.28;;;7.68;70.93
77106;BME280;66057;54.718;18.426;2023-05-10T02:51:30;101919.31;;;7.65;72.42
77106;BME280;66057;54.718;18.426;2023-05-10T02:54:20;101907.22;;;7.62;73.44
77106;BME280;66057;54.718;18.426;2023-05-10T02:57:00;101919.63;;;7.69;74.40
77106;BME280;66057;54.718;18.426;2023-05-10T02:59:29;101916.75;;;7.65;74.53
77106;BME280;66057;54.718;18.426;2023-05-10T03:01:54;101903.19;;;7.54;74.26
77106;BME280;66057;54.718;18.426;2023-05-10T03:04:20;101909.78;;;7.51;75.23
77106;BME280;66057;54.718;18.426;2023-05-10T03:06:46;101923.91;;;7.57;75.29
77106;BME280;66057;54.718;18.426;2023-05-10T03:09:12;101921.47;;;7.47;74.97
77106;BME280;66057;54.718;18.426;2023-05-10T03:11:54;101905.66;;;7.41;75.13
77106;BME280;66057;54.718;18.426;2023-05-10T03:17:15;101916.22;;;7.57;74.20
77106;BME280;66057;54.718;18.426;2023-05-10T03:19:48;101920.53;;;7.58;74.00
77106;BME280;66057;54.718;18.426;2023-05-10T03:22:23;101923.22;;;7.60;74.22
77106;BME280;66057;54.718;18.426;2023-05-10T03:24:55;101906.13;;;7.47;74.40
77106;BME280;66057;54.718;18.426;2023-05-10T03:27:23;101910.53;;;7.50;75.43
77106;BME280;66057;54.718;18.426;2023-05-10T03:29:50;101917.56;;;7.52;74.97
77106;BME280;66057;54.718;18.426;2023-05-10T03:32:16;101919.88;;;7.49;75.27
77106;BME280;66057;54.718;18.426;2023-05-10T03:34:42;101898.19;;;7.44;75.99
77106;BME280;66057;54.718;18.426;2023-05-10T03:37:09;101908.75;;;7.49;76.52
77106;BME280;66057;54.718;18.426;2023-05-10T03:39:35;101913.44;;;7.54;76.79
77106;BME280;66057;54.718;18.426;2023-05-10T03:42:00;101898.31;;;7.57;76.32
77106;BME280;66057;54.718;18.426;2023-05-10T03:44:26;101901.53;;;7.66;75.78
77106;BME280;66057;54.718;18.426;2023-05-10T03:46:52;101902.50;;;7.68;75.97
77106;BME280;66057;54.718;18.426;2023-05-10T03:49:18;101908.19;;;7.76;76.39
77106;BME280;66057;54.718;18.426;2023-05-10T03:51:43;101914.84;;;7.74;76.52
77106;BME280;66057;54.718;18.426;2023-05-10T03:54:09;101911.84;;;7.79;76.02
77106;BME280;66057;54.718;18.426;2023-05-10T03:56:34;101910.38;;;7.83;76.22
77106;BME280;66057;54.718;18.426;2023-05-10T03:59:00;101912.66;;;7.92;76.34
77106;BME280;66057;54.718;18.426;2023-05-10T04:01:26;101906.31;;;7.98;75.87
77106;BME280;66057;54.718;18.426;2023-05-10T04:03:52;101908.22;;;8.01;75.57
77106;BME280;66057;54.718;18.426;2023-05-10T04:06:17;101908.84;;;8.10;75.96
77106;BME280;66057;54.718;18.426;2023-05-10T04:08:43;101914.69;;;8.20;75.62
77106;BME280;66057;54.718;18.426;2023-05-10T04:11:10;101906.53;;;8.26;75.41
77106;BME280;66057;54.718;18.426;2023-05-10T04:13:36;101912.81;;;8.29;75.06
77106;BME280;66057;54.718;18.426;2023-05-10T04:16:02;101910.94;;;8.40;74.58
77106;BME280;66057;54.718;18.426;2023-05-10T04:18:28;101916.94;;;8.52;74.89
77106;BME280;66057;54.718;18.426;2023-05-10T04:20:54;101906.88;;;8.55;74.82
77106;BME280;66057;54.718;18.426;2023-05-10T04:23:19;101902.28;;;8.63;74.48
77106;BME280;66057;54.718;18.426;2023-05-10T04:25:45;101898.81;;;8.62;74.20
77106;BME280;66057;54.718;18.426;2023-05-10T04:28:11;101890.66;;;8.68;73.74
77106;BME280;66057;54.718;18.426;2023-05-10T04:30:37;101905.75;;;8.90;72.52
77106;BME280;66057;54.718;18.426;2023-05-10T04:33:03;101914.84;;;8.98;72.40
77106;BME280;66057;54.718;18.426;2023-05-10T04:35:28;101918.88;;;9.07;71.63
77106;BME280;66057;54.718;18.426;2023-05-10T04:37:54;101921.16;;;9.16;71.58
77106;BME280;66057;54.718;18.426;2023-05-10T04:40:20;101909.91;;;9.14;71.28
77106;BME280;66057;54.718;18.426;2023-05-10T04:42:45;101919.41;;;9.28;71.19
77106;BME280;66057;54.718;18.426;2023-05-10T04:45:12;101920.69;;;9.35;69.78
77106;BME280;66057;54.718;18.426;2023-05-10T04:47:38;101926.28;;;9.42;70.14
77106;BME280;66057;54.718;18.426;2023-05-10T04:50:04;101909.81;;;9.39;69.96
77106;BME280;66057;54.718;18.426;2023-05-10T04:52:30;101920.78;;;9.49;69.85
77106;BME280;66057;54.718;18.426;2023-05-10T04:54:55;101913.94;;;9.50;69.13
77106;BME280;66057;54.718;18.426;2023-05-10T04:57:21;101907.72;;;9.46;69.69
77106;BME280;66057;54.718;18.426;2023-05-10T04:59:47;101915.41;;;9.59;69.73
77106;BME280;66057;54.718;18.426;2023-05-10T05:02:13;101915.81;;;9.66;68.95
77106;BME280;66057;54.718;18.426;2023-05-10T05:04:38;101914.59;;;9.74;68.94
77106;BME280;66057;54.718;18.426;2023-05-10T05:07:04;101914.81;;;9.77;67.22
77106;BME280;66057;54.718;18.426;2023-05-10T05:09:30;101910.34;;;9.74;67.42
77106;BME280;66057;54.718;18.426;2023-05-10T05:11:57;101915.19;;;9.83;66.35
77106;BME280;66057;54.718;18.426;2023-05-10T05:14:23;101911.03;;;9.85;66.67
77106;BME280;66057;54.718;18.426;2023-05-10T05:16:51;101916.47;;;9.76;67.05
77106;BME280;66057;54.718;18.426;2023-05-10T05:19:17;101912.63;;;9.83;67.51
77106;BME280;66057;54.718;18.426;2023-05-10T05:21:43;101912.31;;;9.91;67.78
77106;BME280;66057;54.718;18.426;2023-05-10T05:24:08;101890.97;;;9.92;68.01
77106;BME280;66057;54.718;18.426;2023-05-10T05:26:35;101908.19;;;10.08;66.53
77106;BME280;66057;54.718;18.426;2023-05-10T05:29:01;101901.69;;;10.00;66.63
77106;BME280;66057;54.718;18.426;2023-05-10T05:31:27;101910.97;;;10.11;67.33
77106;BME280;66057;54.718;18.426;2023-05-10T05:33:53;101900.06;;;10.15;66.85
77106;BME280;66057;54.718;18.426;2023-05-10T05:36:18;101898.91;;;10.10;67.16
77106;BME280;66057;54.718;18.426;2023-05-10T05:38:44;101902.06;;;10.19;66.30
77106;BME280;66057;54.718;18.426;2023-05-10T05:41:10;101894.94;;;10.15;65.00
77106;BME280;66057;54.718;18.426;2023-05-10T05:43:36;101897.09;;;10.22;65.66
77106;BME280;66057;54.718;18.426;2023-05-10T05:46:02;101905.41;;;10.18;65.99
77106;BME280;66057;54.718;18.426;2023-05-10T05:48:29;101895.25;;;10.06;65.60
77106;BME280;66057;54.718;18.426;2023-05-10T05:50:55;101889.22;;;10.06;64.63
77106;BME280;66057;54.718;18.426;2023-05-10T05:53:24;101883.47;;;10.10;65.88
77106;BME280;66057;54.718;18.426;2023-05-10T05:55:54;101891.69;;;10.18;64.87
77106;BME280;66057;54.718;18.426;2023-05-10T05:58:21;101889.47;;;10.24;64.55
77106;BME280;66057;54.718;18.426;2023-05-10T06:00:47;101895.38;;;10.36;65.15
77106;BME280;66057;54.718;18.426;2023-05-10T06:03:12;101880.97;;;10.25;63.88
77106;BME280;66057;54.718;18.426;2023-05-10T06:05:38;101900.13;;;10.30;63.74
77106;BME280;66057;54.718;18.426;2023-05-10T06:08:04;101896.69;;;10.29;64.30
77106;BME280;66057;54.718;18.426;2023-05-10T06:10:30;101893.03;;;10.26;64.36
77106;BME280;66057;54.718;18.426;2023-05-10T06:12:55;101902.47;;;10.40;64.23
77106;BME280;66057;54.718;18.426;2023-05-10T06:15:21;101893.06;;;10.40;63.09
77106;BME280;66057;54.718;18.426;2023-05-10T06:17:47;101890.22;;;10.50;64.79
77106;BME280;66057;54.718;18.426;2023-05-10T06:20:15;101890.59;;;10.57;63.21
77106;BME280;66057;54.718;18.426;2023-05-10T06:22:41;101875.53;;;10.63;63.91
77106;BME280;66057;54.718;18.426;2023-05-10T06:25:08;101889.03;;;10.73;63.98
77106;BME280;66057;54.718;18.426;2023-05-10T06:27:34;101884.41;;;10.82;62.98
77106;BME280;66057;54.718;18.426;2023-05-10T06:29:59;101889.53;;;10.97;63.47
77106;BME280;66057;54.718;18.426;2023-05-10T06:32:25;101886.25;;;11.00;64.13
77106;BME280;66057;54.718;18.426;2023-05-10T06:34:51;101879.50;;;11.02;64.37
77106;BME280;66057;54.718;18.426;2023-05-10T06:37:17;101890.56;;;11.15;62.97
77106;BME280;66057;54.718;18.426;2023-05-10T06:39:43;101889.16;;;11.20;64.57
77106;BME280;66057;54.718;18.426;2023-05-10T06:42:09;101886.19;;;10.98;63.94
77106;BME280;66057;54.718;18.426;2023-05-10T06:44:34;101888.91;;;11.16;63.64
77106;BME280;66057;54.718;18.426;2023-05-10T06:47:00;101878.84;;;11.20;63.72
77106;BME280;66057;54.718;18.426;2023-05-10T06:49:26;101878.84;;;11.20;63.65
77106;BME280;66057;54.718;18.426;2023-05-10T06:51:57;101887.53;;;11.22;63.15
77106;BME280;66057;54.718;18.426;2023-05-10T06:54:23;101882.22;;;11.19;64.19
77106;BME280;66057;54.718;18.426;2023-05-10T06:56:49;101882.84;;;11.30;64.63
77106;BME280;66057;54.718;18.426;2023-05-10T06:59:14;101878.47;;;11.29;64.34
77106;BME280;66057;54.718;18.426;2023-05-10T07:01:47;101889.22;;;11.36;64.97
77106;BME280;66057;54.718;18.426;2023-05-10T07:04:13;101885.13;;;11.40;64.40
77106;BME280;66057;54.718;18.426;2023-05-10T07:06:39;101884.56;;;11.46;62.59
77106;BME280;66057;54.718;18.426;2023-05-10T07:09:05;101883.13;;;11.51;63.91
77106;BME280;66057;54.718;18.426;2023-05-10T07:11:30;101881.25;;;11.48;63.25
77106;BME280;66057;54.718;18.426;2023-05-10T07:13:56;101889.97;;;11.50;64.55
77106;BME280;66057;54.718;18.426;2023-05-10T07:16:22;101885.72;;;11.51;62.72
77106;BME280;66057;54.718;18.426;2023-05-10T07:18:47;101889.59;;;11.59;62.05
77106;BME280;66057;54.718;18.426;2023-05-10T07:21:13;101889.94;;;11.65;62.69
77106;BME280;66057;54.718;18.426;2023-05-10T07:23:39;101880.66;;;11.68;61.48
77106;BME280;66057;54.718;18.426;2023-05-10T07:26:05;101876.69;;;11.90;61.45
77106;BME280;66057;54.718;18.426;2023-05-10T07:28:31;101879.25;;;11.90;59.86
77106;BME280;66057;54.718;18.426;2023-05-10T07:30:57;101878.78;;;11.97;60.90
77106;BME280;66057;54.718;18.426;2023-05-10T07:33:23;101876.59;;;12.04;60.20
77106;BME280;66057;54.718;18.426;2023-05-10T07:35:49;101880.00;;;12.19;65.76
77106;BME280;66057;54.718;18.426;2023-05-10T07:38:15;101883.47;;;12.20;63.26
77106;BME280;66057;54.718;18.426;2023-05-10T07:40:42;101875.81;;;12.21;63.43
77106;BME280;66057;54.718;18.426;2023-05-10T07:43:08;101879.91;;;12.34;65.31
77106;BME280;66057;54.718;18.426;2023-05-10T07:45:35;101876.63;;;12.37;68.85
77106;BME280;66057;54.718;18.426;2023-05-10T07:48:03;101881.78;;;12.37;68.93
77106;BME280;66057;54.718;18.426;2023-05-10T07:50:29;101881.69;;;12.35;68.16
77106;BME280;66057;54.718;18.426;2023-05-10T07:52:55;101878.22;;;12.35;68.60
77106;BME280;66057;54.718;18.426;2023-05-10T07:55:21;101885.84;;;12.49;70.61
77106;BME280;66057;54.718;18.426;2023-05-10T07:57:46;101879.47;;;12.59;74.28
77106;BME280;66057;54.718;18.426;2023-05-10T08:00:13;101885.06;;;12.50;73.53
77106;BME280;66057;54.718;18.426;2023-05-10T08:02:42;101879.88;;;12.50;70.26
77106;BME280;66057;54.718;18.426;2023-05-10T08:05:07;101880.50;;;12.62;73.64
77106;BME280;66057;54.718;18.426;2023-05-10T08:07:33;101887.56;;;12.66;72.00
77106;BME280;66057;54.718;18.426;2023-05-10T08:09:59;101873.16;;;12.70;74.49
77106;BME280;66057;54.718;18.426;2023-05-10T08:12:25;101885.22;;;12.71;73.63
77106;BME280;66057;54.718;18.426;2023-05-10T08:14:51;101874.75;;;12.68;77.36
77106;BME280;66057;54.718;18.426;2023-05-10T08:17:17;101878.59;;;12.76;75.12
77106;BME280;66057;54.718;18.426;2023-05-10T08:19:44;101883.13;;;12.80;73.51
77106;BME280;66057;54.718;18.426;2023-05-10T08:22:10;101880.81;;;12.86;74.19
77106;BME280;66057;54.718;18.426;2023-05-10T08:24:35;101871.72;;;12.93;74.05
77106;BME280;66057;54.718;18.426;2023-05-10T08:27:07;101879.81;;;13.00;73.91
77106;BME280;66057;54.718;18.426;2023-05-10T08:29:33;101872.91;;;12.99;76.01
77106;BME280;66057;54.718;18.426;2023-05-10T08:31:59;101875.84;;;13.07;76.07
77106;BME280;66057;54.718;18.426;2023-05-10T08:34:26;101875.28;;;13.13;75.63
77106;BME280;66057;54.718;18.426;2023-05-10T08:36:52;101873.66;;;13.15;75.98
77106;BME280;66057;54.718;18.426;2023-05-10T08:39:18;101877.06;;;13.14;75.43
77106;BME280;66057;54.718;18.426;2023-05-10T08:41:45;101865.78;;;13.12;75.24
77106;BME280;66057;54.718;18.426;2023-05-10T08:44:12;101859.78;;;13.30;74.95
77106;BME280;66057;54.718;18.426;2023-05-10T08:46:41;101860.16;;;13.38;75.03
77106;BME280;66057;54.718;18.426;2023-05-10T08:49:10;101859.50;;;13.42;75.47
77106;BME280;66057;54.718;18.426;2023-05-10T08:51:40;101858.44;;;13.38;74.16
77106;BME280;66057;54.718;18.426;2023-05-10T08:54:09;101863.00;;;13.44;74.37
77106;BME280;66057;54.718;18.426;2023-05-10T08:56:35;101848.59;;;13.49;76.15
77106;BME280;66057;54.718;18.426;2023-05-10T08:59:01;101844.97;;;13.63;75.50
77106;BME280;66057;54.718;18.426;2023-05-10T09:01:27;101852.25;;;13.72;74.23
77106;BME280;66057;54.718;18.426;2023-05-10T09:03:53;101842.53;;;13.66;75.38
77106;BME280;66057;54.718;18.426;2023-05-10T09:06:19;101846.88;;;13.67;73.07
77106;BME280;66057;54.718;18.426;2023-05-10T09:08:45;101845.66;;;13.78;74.71
77106;BME280;66057;54.718;18.426;2023-05-10T09:11:12;101844.78;;;13.78;73.78
77106;BME280;66057;54.718;18.426;2023-05-10T09:13:38;101842.16;;;13.95;73.82
77106;BME280;66057;54.718;18.426;2023-05-10T09:16:04;101835.13;;;13.93;72.28
77106;BME280;66057;54.718;18.426;2023-05-10T09:18:30;101827.50;;;13.96;70.54
77106;BME280;66057;54.718;18.426;2023-05-10T09:20:57;101834.84;;;14.06;70.82
77106;BME280;66057;54.718;18.426;2023-05-10T09:23:23;101839.06;;;14.04;70.59
77106;BME280;66057;54.718;18.426;2023-05-10T09:26:06;101848.66;;;14.07;71.50
77106;BME280;66057;54.718;18.426;2023-05-10T09:28:59;101847.84;;;14.08;72.73
77106;BME280;66057;54.718;18.426;2023-05-10T09:31:50;101832.41;;;14.09;69.98
77106;BME280;66057;54.718;18.426;2023-05-10T09:34:29;101833.41;;;14.13;67.46
77106;BME280;66057;54.718;18.426;2023-05-10T09:37:02;101840.97;;;14.27;68.00
77106;BME280;66057;54.718;18.426;2023-05-10T09:39:38;101822.94;;;14.29;67.94
77106;BME280;66057;54.718;18.426;2023-05-10T09:42:08;101832.72;;;14.36;68.37
77106;BME280;66057;54.718;18.426;2023-05-10T09:44:35;101836.66;;;14.47;68.95
77106;BME280;66057;54.718;18.426;2023-05-10T09:47:02;101835.00;;;14.49;67.66
77106;BME280;66057;54.718;18.426;2023-05-10T09:49:27;101823.53;;;14.43;68.43
77106;BME280;66057;54.718;18.426;2023-05-10T09:52:04;101827.25;;;14.49;67.89
77106;BME280;66057;54.718;18.426;2023-05-10T09:54:30;101829.97;;;14.52;67.04
77106;BME280;66057;54.718;18.426;2023-05-10T09:56:56;101825.03;;;14.58;68.03
77106;BME280;66057;54.718;18.426;2023-05-10T09:59:25;101822.91;;;14.69;67.35
77106;BME280;66057;54.718;18.426;2023-05-10T10:01:52;101819.88;;;14.79;62.85
77106;BME280;66057;54.718;18.426;2023-05-10T10:04:17;101820.75;;;14.79;61.91
77106;BME280;66057;54.718;18.426;2023-05-10T10:06:45;101822.97;;;14.91;64.05
77106;BME280;66057;54.718;18.426;2023-05-10T10:09:11;101814.44;;;14.94;64.88
77106;BME280;66057;54.718;18.426;2023-05-10T10:11:37;101821.75;;;15.04;66.24
77106;BME280;66057;54.718;18.426;2023-05-10T10:14:04;101813.97;;;14.81;62.07
77106;BME280;66057;54.718;18.426;2023-05-10T10:16:32;101816.28;;;14.96;62.33
77106;BME280;66057;54.718;18.426;2023-05-10T10:18:58;101815.03;;;15.09;66.12
77106;BME280;66057;54.718;18.426;2023-05-10T10:21:24;101807.28;;;15.09;60.77
77106;BME280;66057;54.718;18.426;2023-05-10T10:23:50;101808.44;;;15.17;61.06
77106;BME280;66057;54.718;18.426;2023-05-10T10:26:19;101806.00;;;15.20;65.02
77106;BME280;66057;54.718;18.426;2023-05-10T10:29:10;101805.03;;;15.18;67.16
77106;BME280;66057;54.718;18.426;2023-05-10T10:31:51;101805.03;;;15.18;61.63
77106;BME280;66057;54.718;18.426;2023-05-10T10:34:28;101801.28;;;15.32;59.71
77106;BME280;66057;54.718;18.426;2023-05-10T10:36:56;101794.19;;;15.50;57.08
77106;BME280;66057;54.718;18.426;2023-05-10T10:39:23;101796.97;;;15.55;58.51
77106;BME280;66057;54.718;18.426;2023-05-10T10:41:55;101797.28;;;15.62;60.52
77106;BME280;66057;54.718;18.426;2023-05-10T10:49:50;101788.66;;;15.41;65.97
77106;BME280;66057;54.718;18.426;2023-05-10T10:54:51;101787.84;;;15.64;53.96
77106;BME280;66057;54.718;18.426;2023-05-10T10:57:19;101788.00;;;15.93;52.99
77106;BME280;66057;54.718;18.426;2023-05-10T10:59:47;101775.28;;;16.24;51.49
77106;BME280;66057;54.718;18.426;2023-05-10T11:05:33;101771.66;;;16.44;51.46
77106;BME280;66057;54.718;18.426;2023-05-10T11:08:07;101778.28;;;16.62;50.44
77106;BME280;66057;54.718;18.426;2023-05-10T11:10:34;101773.81;;;16.57;52.53
77106;BME280;66057;54.718;18.426;2023-05-10T11:15:34;101764.22;;;16.04;53.56
77106;BME280;66057;54.718;18.426;2023-05-10T11:18:19;101767.06;;;16.12;52.31
77106;BME280;66057;54.718;18.426;2023-05-10T11:20:50;101770.91;;;16.23;55.28
77106;BME280;66057;54.718;18.426;2023-05-10T11:23:16;101764.16;;;16.28;56.89
77106;BME280;66057;54.718;18.426;2023-05-10T11:25:44;101768.25;;;16.22;61.26
77106;BME280;66057;54.718;18.426;2023-05-10T11:28:11;101748.94;;;15.88;59.63
77106;BME280;66057;54.718;18.426;2023-05-10T11:30:39;101761.47;;;16.00;61.34
77106;BME280;66057;54.718;18.426;2023-05-10T11:33:06;101758.38;;;16.11;62.07
77106;BME280;66057;54.718;18.426;2023-05-10T11:35:40;101750.00;;;16.19;59.86
77106;BME280;66057;54.718;18.426;2023-05-10T11:38:10;101755.44;;;16.01;59.05
77106;BME280;66057;54.718;18.426;2023-05-10T11:40:37;101754.25;;;16.17;61.13
77106;BME280;66057;54.718;18.426;2023-05-10T11:43:04;101754.53;;;16.24;60.41
77106;BME280;66057;54.718;18.426;2023-05-10T11:45:32;101751.75;;;16.45;60.28
77106;BME280;66057;54.718;18.426;2023-05-10T11:47:59;101749.03;;;16.94;55.53
77106;BME280;66057;54.718;18.426;2023-05-10T11:50:25;101754.16;;;17.49;57.78
77106;BME280;66057;54.718;18.426;2023-05-10T11:52:55;101751.72;;;17.85;59.48
77106;BME280;66057;54.718;18.426;2023-05-10T11:55:21;101757.50;;;18.06;57.11
77106;BME280;66057;54.718;18.426;2023-05-10T11:57:51;101754.44;;;18.55;54.08
77106;BME280;66057;54.718;18.426;2023-05-10T12:00:17;101757.66;;;18.47;54.77
77106;BME280;66057;54.718;18.426;2023-05-10T12:02:43;101748.31;;;18.91;53.12
77106;BME280;66057;54.718;18.426;2023-05-10T12:05:09;101746.88;;;18.66;50.01
77106;BME280;66057;54.718;18.426;2023-05-10T12:07:35;101740.03;;;18.69;49.30
77106;BME280;66057;54.718;18.426;2023-05-10T12:10:12;101753.69;;;18.97;45.89
77106;BME280;66057;54.718;18.426;2023-05-10T12:12:44;101747.28;;;18.83;47.92
77106;BME280;66057;54.718;18.426;2023-05-10T12:15:12;101741.44;;;19.33;47.69
77106;BME280;66057;54.718;18.426;2023-05-10T12:17:43;101753.28;;;19.56;47.73
77106;BME280;66057;54.718;18.426;2023-05-10T12:20:16;101749.47;;;19.84;47.40
77106;BME280;66057;54.718;18.426;2023-05-10T12:22:47;101741.84;;;19.51;47.53
77106;BME280;66057;54.718;18.426;2023-05-10T12:25:14;101735.19;;;19.67;47.78
77106;BME280;66057;54.718;18.426;2023-05-10T12:27:41;101738.94;;;19.81;46.62
77106;BME280;66057;54.718;18.426;2023-05-10T12:30:12;101735.22;;;20.15;45.81
77106;BME280;66057;54.718;18.426;2023-05-10T12:32:39;101744.00;;;20.19;48.46
77106;BME280;66057;54.718;18.426;2023-05-10T12:35:06;101734.91;;;19.97;45.82
77106;BME280;66057;54.718;18.426;2023-05-10T12:37:32;101726.41;;;20.10;44.62
77106;BME280;66057;54.718;18.426;2023-05-10T12:40:01;101735.94;;;20.58;44.13
77106;BME280;66057;54.718;18.426;2023-05-10T12:42:28;101715.16;;;20.62;43.74
77106;BME280;66057;54.718;18.426;2023-05-10T12:44:56;101732.63;;;20.66;43.59
77106;BME280;66057;54.718;18.426;2023-05-10T12:47:22;101722.97;;;20.64;41.85
77106;BME280;66057;54.718;18.426;2023-05-10T12:49:47;101723.63;;;21.08;43.86
77106;BME280;66057;54.718;18.426;2023-05-10T12:52:13;101712.84;;;20.86;45.95
77106;BME280;66057;54.718;18.426;2023-05-10T12:54:39;101727.69;;;20.87;45.11
77106;BME280;66057;54.718;18.426;2023-05-10T12:57:05;101732.16;;;20.95;44.84
77106;BME280;66057;54.718;18.426;2023-05-10T12:59:30;101717.13;;;20.81;42.67
77106;BME280;66057;54.718;18.426;2023-05-10T13:01:57;101716.50;;;20.39;43.73
77106;BME280;66057;54.718;18.426;2023-05-10T13:04:22;101718.09;;;20.86;43.79
77106;BME280;66057;54.718;18.426;2023-05-10T13:06:48;101710.00;;;21.31;43.67
77106;BME280;66057;54.718;18.426;2023-05-10T13:09:14;101711.59;;;21.19;43.92
77106;BME280;66057;54.718;18.426;2023-05-10T13:11:39;101707.09;;;21.12;42.84
77106;BME280;66057;54.718;18.426;2023-05-10T13:14:05;101703.03;;;21.29;41.51